createdAt,value
2019-03-31T00:04:08.360Z,5.90
2019-03-31T00:09:11.833Z,6.00
2019-03-31T00:14:16.435Z,6.10
2019-03-31T00:19:19.669Z,6.10
2019-03-31T00:24:23.998Z,6.20
2019-03-31T00:29:28.476Z,6.30
2019-03-31T00:34:33.126Z,6.20
2019-03-31T00:39:36.546Z,6.10
2019-03-31T00:44:41.381Z,6.00
2019-03-31T00:49:45.750Z,6.00
2019-03-31T00:54:50.531Z,6.10
2019-03-31T00:59:53.715Z,6.00
2019-03-31T01:04:58.130Z,6.00
2019-03-31T01:10:03.015Z,5.90
2019-03-31T01:15:11.475Z,6.00
2019-03-31T01:20:15.850Z,6.00
2019-03-31T01:25:20.234Z,6.20
2019-03-31T01:30:25.027Z,6.30
2019-03-31T01:35:30.315Z,6.40
2019-03-31T01:40:34.943Z,6.40
2019-03-31T01:45:38.542Z,6.40
2019-03-31T01:50:42.854Z,6.40
2019-03-31T01:55:47.199Z,6.60
2019-03-31T02:00:56.112Z,6.70
2019-03-31T02:06:00.412Z,6.80
2019-03-31T02:11:05.333Z,6.80
2019-03-31T02:16:10.272Z,6.90
2019-03-31T02:21:14.887Z,6.90
2019-03-31T02:26:18.176Z,6.90
2019-03-31T02:31:22.547Z,6.90
2019-03-31T02:36:27.889Z,6.80
2019-03-31T02:41:32.898Z,6.90
2019-03-31T02:46:37.283Z,6.90
2019-03-31T02:51:41.600Z,7.00
2019-03-31T02:56:46.199Z,7.10
2019-03-31T03:01:49.406Z,7.10
2019-03-31T03:06:54.253Z,7.10
2019-03-31T03:11:58.669Z,7.00
2019-03-31T03:17:03.302Z,7.00
2019-03-31T03:22:07.670Z,7.00
2019-03-31T03:27:12.402Z,7.00
2019-03-31T03:32:17.099Z,6.80
2019-03-31T03:37:20.291Z,6.60
2019-03-31T03:42:24.632Z,6.40
2019-03-31T03:47:29.087Z,6.20
2019-03-31T03:52:33.720Z,6.10
2019-03-31T03:57:37.250Z,6.00
2019-03-31T04:02:42.700Z,5.90
2019-03-31T04:07:47.258Z,5.70
2019-03-31T04:12:51.862Z,5.50
2019-03-31T04:17:55.128Z,5.50
2019-03-31T04:22:59.362Z,5.40
2019-03-31T04:28:04.207Z,5.50
2019-03-31T04:33:08.941Z,5.60
2019-03-31T04:38:13.306Z,5.60
2019-03-31T04:43:18.466Z,5.70
2019-03-31T04:48:22.980Z,5.70
2019-03-31T04:53:27.240Z,5.80
2019-03-31T04:58:31.890Z,5.70
2019-03-31T05:03:35.065Z,5.80
2019-03-31T05:08:39.366Z,5.80
2019-03-31T05:13:43.914Z,5.80
2019-03-31T05:18:48.750Z,5.80
2019-03-31T05:23:53.032Z,5.90
2019-03-31T05:28:57.466Z,6.00
2019-03-31T05:34:02.190Z,6.00
2019-03-31T05:39:06.262Z,6.30
2019-03-31T05:44:11.083Z,6.50
2019-03-31T05:49:15.835Z,6.70
2019-03-31T05:54:20.439Z,6.80
2019-03-31T05:59:23.912Z,6.90
2019-03-31T06:04:33.316Z,7.00
2019-03-31T06:09:34.647Z,7.10
2019-03-31T06:14:37.904Z,7.20
2019-03-31T06:19:42.234Z,7.30
2019-03-31T06:24:46.612Z,7.40
2019-03-31T06:29:50.996Z,7.40
2019-03-31T06:34:55.434Z,7.40
2019-03-31T06:40:00.426Z,7.30
2019-03-31T06:45:05.352Z,7.30
2019-03-31T06:50:09.961Z,7.40
2019-03-31T06:55:14.267Z,7.40
2019-03-31T07:00:18.964Z,7.50
2019-03-31T07:05:22.131Z,7.50
2019-03-31T07:10:27.471Z,7.60
2019-03-31T07:15:32.005Z,7.70
2019-03-31T07:20:36.653Z,7.70
2019-03-31T07:25:40.178Z,7.90
2019-03-31T07:30:44.483Z,7.90
2019-03-31T07:35:49.101Z,7.90
2019-03-31T07:40:54.019Z,7.90
2019-03-31T07:45:58.748Z,8.20
2019-03-31T07:51:03.391Z,8.30
2019-03-31T07:56:07.719Z,8.50
2019-03-31T08:01:12.018Z,9.00
2019-03-31T08:06:16.297Z,9.10
2019-03-31T08:11:21.168Z,9.80
2019-03-31T08:16:25.884Z,11.50
2019-03-31T08:21:31.561Z,12.80
2019-03-31T08:26:35.821Z,12.80
2019-03-31T08:31:40.829Z,12.50
2019-03-31T08:36:45.243Z,12.60
2019-03-31T08:41:49.554Z,12.20
2019-03-31T08:46:54.335Z,11.40
2019-03-31T08:51:57.535Z,10.90
2019-03-31T08:57:02.310Z,10.60
2019-03-31T09:02:26.028Z,10.40
2019-03-31T09:07:30.348Z,10.20
2019-03-31T09:12:34.972Z,10.10
2019-03-31T09:17:40.033Z,10.10
2019-03-31T09:22:44.318Z,10.00
2019-03-31T09:27:48.910Z,10.00
2019-03-31T09:32:53.597Z,10.10
2019-03-31T09:37:58.322Z,10.60
2019-03-31T09:43:02.671Z,11.80
2019-03-31T09:48:07.267Z,12.10
2019-03-31T09:53:12.778Z,12.00
2019-03-31T09:58:17.807Z,12.10
2019-03-31T10:03:25.698Z,11.70
2019-03-31T10:08:30.128Z,11.60
2019-03-31T10:13:34.403Z,11.40
2019-03-31T10:18:38.731Z,11.40
2019-03-31T10:23:43.063Z,11.40
2019-03-31T10:28:47.389Z,11.90
2019-03-31T10:33:52.003Z,12.30
2019-03-31T10:38:56.426Z,12.20
2019-03-31T10:44:06.373Z,12.00
2019-03-31T10:49:10.720Z,11.90
2019-03-31T10:54:15.318Z,11.80
2019-03-31T10:59:19.623Z,11.60
2019-03-31T11:04:23.944Z,11.40
2019-03-31T11:09:28.602Z,11.50
2019-03-31T11:14:32.864Z,11.60
2019-03-31T11:19:37.499Z,11.60
2019-03-31T11:24:41.801Z,11.80
2019-03-31T11:29:46.192Z,12.20
2019-03-31T11:34:50.829Z,12.30
2019-03-31T11:39:55.606Z,12.30
2019-03-31T11:44:58.835Z,12.20
2019-03-31T11:50:03.233Z,12.20
2019-03-31T11:55:07.816Z,12.10
2019-03-31T12:00:15.301Z,12.10
2019-03-31T12:05:19.604Z,12.10
2019-03-31T12:10:24.028Z,12.40
2019-03-31T12:15:28.572Z,12.60
2019-03-31T12:20:34.041Z,12.50
2019-03-31T12:25:38.322Z,12.30
2019-03-31T12:30:45.614Z,12.40
2019-03-31T12:35:50.442Z,12.30
2019-03-31T12:40:53.779Z,12.10
2019-03-31T12:45:58.348Z,11.90
2019-03-31T12:51:02.662Z,11.80
2019-03-31T12:56:07.192Z,11.70
2019-03-31T13:01:11.519Z,11.70
2019-03-31T13:06:15.839Z,11.50
2019-03-31T13:11:21.788Z,11.70
2019-03-31T13:16:26.697Z,12.20
2019-03-31T13:21:31.048Z,12.40
2019-03-31T13:26:35.446Z,12.50
2019-03-31T13:31:39.729Z,12.60
2019-03-31T13:36:44.186Z,12.80
2019-03-31T13:41:49.117Z,12.70
2019-03-31T13:46:53.475Z,12.70
2019-03-31T13:51:58.418Z,12.60
2019-03-31T13:57:02.984Z,12.40
2019-03-31T14:02:12.178Z,12.20
2019-03-31T14:07:16.899Z,12.20
2019-03-31T14:12:21.586Z,12.10
2019-03-31T14:17:26.130Z,11.90
2019-03-31T14:22:30.728Z,11.50
2019-03-31T14:27:35.288Z,11.50
2019-03-31T14:32:39.598Z,11.80
2019-03-31T14:37:44.148Z,12.00
2019-03-31T14:42:48.486Z,12.00
2019-03-31T14:47:52.778Z,11.80
2019-03-31T14:52:57.068Z,11.50
2019-03-31T14:58:01.682Z,11.30
2019-03-31T15:03:05.977Z,11.40
2019-03-31T15:08:10.519Z,11.80
2019-03-31T15:13:14.904Z,12.20
2019-03-31T15:18:19.506Z,12.30
2019-03-31T15:23:28.827Z,12.00
2019-03-31T15:28:30.075Z,11.60
2019-03-31T15:33:34.636Z,11.70
2019-03-31T15:38:39.011Z,11.80
2019-03-31T15:43:43.374Z,11.90
2019-03-31T15:48:47.991Z,12.00
2019-03-31T15:53:52.694Z,11.80
2019-03-31T15:58:55.932Z,11.70
2019-03-31T16:04:00.486Z,11.50
2019-03-31T16:09:05.794Z,11.50
2019-03-31T16:14:09.906Z,11.30
2019-03-31T16:19:14.042Z,11.20
2019-03-31T16:24:20.671Z,11.00
2019-03-31T16:29:33.173Z,10.90
2019-03-31T16:34:37.291Z,10.80
2019-03-31T16:39:41.244Z,10.60
2019-03-31T16:44:57.516Z,10.50
2019-03-31T16:49:50.574Z,10.30
2019-03-31T16:54:54.584Z,10.20
2019-03-31T16:59:58.653Z,10.00
2019-03-31T17:05:02.403Z,9.90
2019-03-31T17:10:06.868Z,9.80
2019-03-31T17:15:10.782Z,9.70
2019-03-31T17:20:14.820Z,9.60
2019-03-31T17:25:18.809Z,9.50
2019-03-31T17:30:23.082Z,9.40
2019-03-31T17:35:26.828Z,9.30
2019-03-31T17:40:30.616Z,9.20
2019-03-31T17:45:35.445Z,9.00
2019-03-31T17:50:39.203Z,8.80
2019-03-31T17:55:42.946Z,8.70
2019-03-31T18:00:46.865Z,8.50
2019-03-31T18:05:53.188Z,8.40
2019-03-31T18:10:57.253Z,8.20
2019-03-31T18:16:01.128Z,8.10
2019-03-31T18:21:05.262Z,8.00
2019-03-31T18:26:09.866Z,7.80
2019-03-31T18:31:14.012Z,7.70
2019-03-31T18:36:18.533Z,7.60
2019-03-31T18:41:22.866Z,7.40
2019-03-31T18:46:58.671Z,7.40
2019-03-31T18:52:04.682Z,7.20
2019-03-31T18:57:33.749Z,7.10
2019-03-31T19:02:49.321Z,7.00
2019-03-31T19:08:13.649Z,6.90
2019-03-31T19:13:55.182Z,6.80
2019-03-31T19:19:13.561Z,6.70
2019-03-31T19:24:29.747Z,6.60
2019-03-31T19:29:57.276Z,6.40
2019-03-31T19:35:33.137Z,6.30
2019-03-31T19:41:03.971Z,6.30
2019-03-31T19:46:23.528Z,6.10
2019-03-31T19:51:58.493Z,6.00
2019-03-31T19:57:25.148Z,5.90
2019-03-31T20:02:35.275Z,5.80
2019-03-31T20:07:59.323Z,5.60
2019-03-31T20:13:31.591Z,5.40
2019-03-31T20:18:46.412Z,5.50
2019-03-31T20:24:19.368Z,5.40
2019-03-31T20:29:32.094Z,5.40
2019-03-31T20:34:55.053Z,5.40
2019-03-31T20:40:10.107Z,5.40
2019-03-31T20:45:14.693Z,5.40
2019-03-31T20:50:17.579Z,5.30
2019-03-31T20:55:21.500Z,5.30
2019-03-31T21:00:25.240Z,5.20
2019-03-31T21:05:29.503Z,5.10
2019-03-31T21:10:35.263Z,5.00
2019-03-31T21:15:39.366Z,4.90
2019-03-31T21:20:43.159Z,4.80
2019-03-31T21:25:46.914Z,4.70
2019-03-31T21:30:50.685Z,4.60
2019-03-31T21:35:54.468Z,4.60
2019-03-31T21:41:08.431Z,4.50
2019-03-31T21:46:12.613Z,4.40
2019-03-31T21:51:16.470Z,4.20
2019-03-31T21:56:20.855Z,4.10
2019-03-31T22:01:24.726Z,3.90
2019-03-31T22:06:28.456Z,3.80
2019-03-31T22:11:32.724Z,3.60
2019-03-31T22:16:36.796Z,3.50
2019-03-31T22:21:40.866Z,3.40
2019-03-31T22:26:44.676Z,3.30
2019-03-31T22:31:48.475Z,3.20
2019-03-31T22:36:52.270Z,3.20
2019-03-31T22:41:56.539Z,3.00
2019-03-31T22:47:00.346Z,2.90
2019-03-31T22:52:04.099Z,2.70
2019-03-31T22:57:08.135Z,2.60
2019-03-31T23:02:13.307Z,2.50
2019-03-31T23:07:17.337Z,2.40
2019-03-31T23:12:21.221Z,2.30
2019-03-31T23:17:25.329Z,2.30
2019-03-31T23:22:29.382Z,2.20
2019-03-31T23:27:34.766Z,2.10
2019-03-31T23:32:41.564Z,2.10
2019-03-31T23:37:45.567Z,2.00
2019-03-31T23:42:49.352Z,1.90
2019-03-31T23:47:54.990Z,1.80
2019-03-31T23:52:59.379Z,1.80
2019-03-31T23:58:03.185Z,1.70
